BAW817 EKCH-EGLL
Flight info
| Callsign | BAW817 |
|---|---|
| Flight time | 1h 36m |
| Altitude | 38000 |
| Route | LANGO2A LANGO DCT RAXLU DCT JUIST DCT ABNED L980 LOGAN LOGAN2H |
| Aircraft | A320/M-SDE3FGIJ1KRWXY/SB1 |
Departure
| Time | 2026-05-06 10:41 |
|---|---|
| Airport | Copenhagen Kastrup Airport (EKCH) |
Arrival
| Time | 2026-05-06 12:17 |
|---|---|
| Airport | London Heathrow Airport (EGLL) |
| Time | Latitude | Longitude | Altitude | Speed | Heading |
|---|---|---|---|---|---|
| 2026-05-06 09:39 | 55.62640 | 12.65065 | 17 ft | 0 kts | 278° |
| 2026-05-06 10:27 | 55.62637 | 12.65095 | 19 ft | 4 kts | 278° |
| 2026-05-06 10:27 | 55.62633 | 12.65142 | 21 ft | 4 kts | 278° |
| 2026-05-06 10:27 | 55.62629 | 12.65189 | 19 ft | 4 kts | 278° |
| 2026-05-06 10:27 | 55.62627 | 12.65218 | 17 ft | 0 kts | 278° |
| 2026-05-06 10:30 | 55.62622 | 12.65213 | 17 ft | 1 kts | 224° |
| 2026-05-06 10:30 | 55.62604 | 12.65207 | 18 ft | 4 kts | 194° |
| 2026-05-06 10:30 | 55.62567 | 12.65197 | 17 ft | 6 kts | 180° |
| 2026-05-06 10:30 | 55.62515 | 12.65198 | 17 ft | 9 kts | 179° |
| 2026-05-06 10:31 | 55.62449 | 12.65201 | 18 ft | 11 kts | 178° |
| 2026-05-06 10:31 | 55.62369 | 12.65205 | 17 ft | 10 kts | 179° |
| 2026-05-06 10:31 | 55.62292 | 12.65202 | 17 ft | 12 kts | 184° |
| 2026-05-06 10:31 | 55.62205 | 12.65178 | 17 ft | 13 kts | 211° |
| 2026-05-06 10:32 | 55.62140 | 12.65102 | 17 ft | 11 kts | 213° |
| 2026-05-06 10:32 | 55.62073 | 12.65025 | 18 ft | 12 kts | 213° |
| 2026-05-06 10:32 | 55.61994 | 12.64934 | 19 ft | 15 kts | 213° |
| 2026-05-06 10:32 | 55.61914 | 12.64842 | 17 ft | 12 kts | 212° |
| 2026-05-06 10:33 | 55.61838 | 12.64756 | 17 ft | 14 kts | 213° |
| 2026-05-06 10:33 | 55.61752 | 12.64657 | 19 ft | 16 kts | 213° |
| 2026-05-06 10:33 | 55.61666 | 12.64558 | 19 ft | 13 kts | 213° |
| 2026-05-06 10:33 | 55.61585 | 12.64465 | 18 ft | 15 kts | 213° |
| 2026-05-06 10:34 | 55.61494 | 12.64361 | 17 ft | 17 kts | 214° |
| 2026-05-06 10:34 | 55.61392 | 12.64242 | 19 ft | 19 kts | 213° |
| 2026-05-06 10:34 | 55.61300 | 12.64138 | 17 ft | 13 kts | 214° |
| 2026-05-06 10:34 | 55.61216 | 12.64040 | 17 ft | 15 kts | 213° |
| 2026-05-06 10:35 | 55.61120 | 12.63930 | 17 ft | 17 kts | 213° |
| 2026-05-06 10:35 | 55.61036 | 12.63833 | 17 ft | 14 kts | 213° |
| 2026-05-06 10:35 | 55.60950 | 12.63735 | 18 ft | 16 kts | 213° |
| 2026-05-06 10:35 | 55.60855 | 12.63626 | 17 ft | 18 kts | 213° |
| 2026-05-06 10:36 | 55.60746 | 12.63501 | 17 ft | 20 kts | 213° |
| 2026-05-06 10:36 | 55.60629 | 12.63356 | 17 ft | 22 kts | 218° |
| 2026-05-06 10:36 | 55.60540 | 12.63221 | 17 ft | 14 kts | 220° |
| 2026-05-06 10:36 | 55.60461 | 12.63107 | 17 ft | 15 kts | 207° |
| 2026-05-06 10:37 | 55.60400 | 12.63153 | 17 ft | 0 kts | 131° |
| 2026-05-06 10:39 | 55.60396 | 12.63161 | 19 ft | 2 kts | 131° |
| 2026-05-06 10:39 | 55.60373 | 12.63207 | 17 ft | 7 kts | 131° |
| 2026-05-06 10:39 | 55.60338 | 12.63279 | 19 ft | 8 kts | 129° |
| 2026-05-06 10:40 | 55.60350 | 12.63365 | 20 ft | 9 kts | 42° |
| 2026-05-06 10:40 | 55.60363 | 12.63386 | 19 ft | 0 kts | 41° |
| 2026-05-06 10:40 | 55.60368 | 12.63394 | 19 ft | 13 kts | 41° |
| 2026-05-06 10:40 | 55.60684 | 12.63883 | 19 ft | 103 kts | 41° |
| 2026-05-06 10:41 | 55.61402 | 12.64994 | 27 ft | 167 kts | 41° |
| 2026-05-06 10:41 | 55.62286 | 12.66366 | 853 ft | 168 kts | 42° |
| 2026-05-06 10:41 | 55.63155 | 12.67717 | 1801 ft | 167 kts | 43° |
| 2026-05-06 10:41 | 55.64068 | 12.69140 | 2153 ft | 185 kts | 43° |
| 2026-05-06 10:42 | 55.65097 | 12.70742 | 2393 ft | 210 kts | 43° |
| 2026-05-06 10:42 | 55.66272 | 12.72523 | 2770 ft | 234 kts | 42° |
| 2026-05-06 10:42 | 55.67564 | 12.74449 | 3419 ft | 248 kts | 41° |
| 2026-05-06 10:42 | 55.68872 | 12.76470 | 4308 ft | 252 kts | 49° |
| 2026-05-06 10:43 | 55.69550 | 12.78145 | 4884 ft | 254 kts | 64° |
| 2026-05-06 10:43 | 55.70019 | 12.81162 | 5756 ft | 258 kts | 87° |
| 2026-05-06 10:43 | 55.69736 | 12.84316 | 6598 ft | 265 kts | 110° |
| 2026-05-06 10:44 | 55.67091 | 12.88832 | 8162 ft | 280 kts | 159° |
| 2026-05-06 10:44 | 55.65249 | 12.90021 | 8968 ft | 284 kts | 161° |
| 2026-05-06 10:44 | 55.63344 | 12.91002 | 9775 ft | 287 kts | 173° |
| 2026-05-06 10:44 | 55.61321 | 12.91013 | 10260 ft | 301 kts | 192° |
| 2026-05-06 10:45 | 55.59341 | 12.89548 | 10449 ft | 321 kts | 217° |
| 2026-05-06 10:45 | 55.57860 | 12.86521 | 10817 ft | 333 kts | 241° |
| 2026-05-06 10:45 | 55.56758 | 12.82894 | 11472 ft | 337 kts | 242° |
| 2026-05-06 10:45 | 55.55652 | 12.79213 | 12160 ft | 340 kts | 242° |
| 2026-05-06 10:46 | 55.54540 | 12.75512 | 12879 ft | 342 kts | 242° |
| 2026-05-06 10:46 | 55.53420 | 12.71796 | 13632 ft | 344 kts | 242° |
| 2026-05-06 10:46 | 55.52301 | 12.68098 | 14208 ft | 347 kts | 242° |
| 2026-05-06 10:46 | 55.51153 | 12.64324 | 14816 ft | 350 kts | 242° |
| 2026-05-06 10:47 | 55.49993 | 12.60523 | 15413 ft | 353 kts | 242° |
| 2026-05-06 10:47 | 55.48823 | 12.56697 | 16006 ft | 356 kts | 242° |
| 2026-05-06 10:47 | 55.47639 | 12.52838 | 16580 ft | 359 kts | 242° |
| 2026-05-06 10:47 | 55.46448 | 12.48960 | 17173 ft | 361 kts | 242° |
| 2026-05-06 10:48 | 55.45243 | 12.45051 | 17762 ft | 364 kts | 242° |
| 2026-05-06 10:48 | 55.44029 | 12.41122 | 18341 ft | 367 kts | 242° |
| 2026-05-06 10:48 | 55.42808 | 12.37162 | 18873 ft | 369 kts | 242° |
| 2026-05-06 10:48 | 55.41580 | 12.33182 | 19412 ft | 371 kts | 242° |
| 2026-05-06 10:49 | 55.40343 | 12.29179 | 19968 ft | 373 kts | 241° |
| 2026-05-06 10:49 | 55.39100 | 12.25159 | 20535 ft | 374 kts | 242° |
| 2026-05-06 10:49 | 55.37852 | 12.21132 | 21121 ft | 375 kts | 241° |
| 2026-05-06 10:49 | 55.36600 | 12.17098 | 21630 ft | 377 kts | 241° |
| 2026-05-06 10:50 | 55.35339 | 12.13045 | 22135 ft | 379 kts | 241° |
| 2026-05-06 10:50 | 55.34068 | 12.08973 | 22617 ft | 381 kts | 241° |
| 2026-05-06 10:50 | 55.32782 | 12.04885 | 23100 ft | 383 kts | 240° |
| 2026-05-06 10:50 | 55.31465 | 12.00794 | 23563 ft | 385 kts | 240° |
| 2026-05-06 10:51 | 55.30125 | 11.96693 | 23957 ft | 388 kts | 240° |
| 2026-05-06 10:51 | 55.28772 | 11.92581 | 24349 ft | 390 kts | 239° |
| 2026-05-06 10:51 | 55.27411 | 11.88451 | 24739 ft | 392 kts | 239° |
| 2026-05-06 10:51 | 55.26042 | 11.84301 | 25126 ft | 394 kts | 239° |
| 2026-05-06 10:52 | 55.24666 | 11.80136 | 25498 ft | 396 kts | 239° |
| 2026-05-06 10:52 | 55.23282 | 11.75951 | 25881 ft | 398 kts | 239° |
| 2026-05-06 10:52 | 55.21890 | 11.71738 | 26239 ft | 400 kts | 239° |
| 2026-05-06 10:52 | 55.20508 | 11.67547 | 26544 ft | 404 kts | 239° |
| 2026-05-06 10:53 | 55.19094 | 11.63264 | 26889 ft | 407 kts | 239° |
| 2026-05-06 10:53 | 55.17671 | 11.58966 | 27289 ft | 409 kts | 238° |
| 2026-05-06 10:53 | 55.16240 | 11.54656 | 27733 ft | 409 kts | 238° |
| 2026-05-06 10:53 | 55.14807 | 11.50349 | 28121 ft | 411 kts | 238° |
| 2026-05-06 10:54 | 55.13362 | 11.46023 | 28482 ft | 413 kts | 237° |
| 2026-05-06 10:54 | 55.11906 | 11.41669 | 28826 ft | 415 kts | 237° |
| 2026-05-06 10:54 | 55.10444 | 11.37300 | 29173 ft | 418 kts | 237° |
| 2026-05-06 10:54 | 55.08971 | 11.32915 | 29518 ft | 419 kts | 237° |
| 2026-05-06 10:55 | 55.07494 | 11.28531 | 30002 ft | 418 kts | 237° |
| 2026-05-06 10:55 | 55.06021 | 11.24164 | 30445 ft | 417 kts | 236° |
| 2026-05-06 10:55 | 55.04553 | 11.19812 | 30883 ft | 415 kts | 236° |
| 2026-05-06 10:55 | 55.03090 | 11.15480 | 31320 ft | 414 kts | 236° |
| 2026-05-06 10:56 | 55.01628 | 11.11157 | 31758 ft | 413 kts | 236° |
| 2026-05-06 10:56 | 55.00167 | 11.06845 | 32103 ft | 414 kts | 236° |
| 2026-05-06 10:56 | 54.98698 | 11.02519 | 32456 ft | 415 kts | 235° |
| 2026-05-06 10:56 | 54.97224 | 10.98187 | 32857 ft | 415 kts | 235° |
| 2026-05-06 10:57 | 54.95755 | 10.93876 | 33340 ft | 413 kts | 235° |
| 2026-05-06 10:57 | 54.94295 | 10.89601 | 33937 ft | 408 kts | 234° |
| 2026-05-06 10:57 | 54.92851 | 10.85377 | 34363 ft | 406 kts | 235° |
| 2026-05-06 10:57 | 54.91404 | 10.81161 | 34695 ft | 405 kts | 235° |
| 2026-05-06 10:58 | 54.89959 | 10.76955 | 34989 ft | 406 kts | 235° |
| 2026-05-06 10:58 | 54.88511 | 10.72747 | 35279 ft | 406 kts | 236° |
| 2026-05-06 10:58 | 54.87060 | 10.68530 | 35558 ft | 407 kts | 236° |
| 2026-05-06 10:58 | 54.85611 | 10.64315 | 35836 ft | 407 kts | 236° |
| 2026-05-06 10:59 | 54.84158 | 10.60097 | 36103 ft | 407 kts | 236° |
| 2026-05-06 10:59 | 54.82699 | 10.55883 | 36371 ft | 408 kts | 236° |
| 2026-05-06 10:59 | 54.81237 | 10.51670 | 36638 ft | 408 kts | 236° |
| 2026-05-06 10:59 | 54.79772 | 10.47455 | 36820 ft | 409 kts | 237° |
| 2026-05-06 11:00 | 54.78297 | 10.43221 | 37048 ft | 411 kts | 237° |
| 2026-05-06 11:00 | 54.76819 | 10.38989 | 37283 ft | 411 kts | 237° |
| 2026-05-06 11:00 | 54.75337 | 10.34753 | 37536 ft | 411 kts | 237° |
| 2026-05-06 11:00 | 54.73855 | 10.30523 | 37787 ft | 411 kts | 237° |
| 2026-05-06 11:01 | 54.72370 | 10.26284 | 37912 ft | 413 kts | 237° |
| 2026-05-06 11:01 | 54.69362 | 10.17703 | 37917 ft | 419 kts | 237° |
| 2026-05-06 11:02 | 54.66345 | 10.09127 | 37917 ft | 420 kts | 237° |
| 2026-05-06 11:02 | 54.63293 | 10.00504 | 37918 ft | 421 kts | 237° |
| 2026-05-06 11:03 | 54.60239 | 9.91900 | 37920 ft | 421 kts | 237° |
| 2026-05-06 11:03 | 54.57179 | 9.83297 | 37907 ft | 421 kts | 237° |
| 2026-05-06 11:04 | 54.54104 | 9.74695 | 37913 ft | 421 kts | 237° |
| 2026-05-06 11:04 | 54.51021 | 9.66095 | 37940 ft | 422 kts | 237° |
| 2026-05-06 11:05 | 54.47933 | 9.57506 | 37940 ft | 422 kts | 237° |
| 2026-05-06 11:05 | 54.44847 | 9.48975 | 37939 ft | 422 kts | 237° |
| 2026-05-06 11:06 | 54.41742 | 9.40409 | 37939 ft | 422 kts | 237° |
| 2026-05-06 11:06 | 54.38625 | 9.31842 | 37912 ft | 422 kts | 237° |
| 2026-05-06 11:07 | 54.35508 | 9.23299 | 37912 ft | 423 kts | 237° |
| 2026-05-06 11:07 | 54.32384 | 9.14759 | 37921 ft | 423 kts | 236° |
| 2026-05-06 11:08 | 54.29249 | 9.06229 | 37937 ft | 423 kts | 236° |
| 2026-05-06 11:08 | 54.26108 | 8.97713 | 37930 ft | 423 kts | 236° |
| 2026-05-06 11:09 | 54.22958 | 8.89209 | 37934 ft | 423 kts | 236° |
| 2026-05-06 11:09 | 54.19802 | 8.80705 | 37922 ft | 423 kts | 236° |
| 2026-05-06 11:10 | 54.16646 | 8.72223 | 37909 ft | 423 kts | 236° |
| 2026-05-06 11:10 | 54.13478 | 8.63745 | 37917 ft | 424 kts | 236° |
| 2026-05-06 11:11 | 54.10297 | 8.55274 | 37915 ft | 424 kts | 236° |
| 2026-05-06 11:11 | 54.07111 | 8.46815 | 37917 ft | 424 kts | 236° |
| 2026-05-06 11:12 | 54.03922 | 8.38374 | 37929 ft | 424 kts | 236° |
| 2026-05-06 11:12 | 54.00743 | 8.29988 | 37924 ft | 424 kts | 236° |
| 2026-05-06 11:13 | 53.97543 | 8.21564 | 37925 ft | 424 kts | 236° |
| 2026-05-06 11:13 | 53.94336 | 8.13146 | 37910 ft | 425 kts | 236° |
| 2026-05-06 11:14 | 53.91113 | 8.04733 | 37908 ft | 425 kts | 236° |
| 2026-05-06 11:14 | 53.87885 | 7.96323 | 37915 ft | 425 kts | 236° |
| 2026-05-06 11:15 | 53.84652 | 7.87926 | 37913 ft | 425 kts | 236° |
| 2026-05-06 11:15 | 53.81411 | 7.79520 | 37926 ft | 426 kts | 236° |
| 2026-05-06 11:16 | 53.78157 | 7.71137 | 37919 ft | 426 kts | 235° |
| 2026-05-06 11:16 | 53.74920 | 7.62833 | 37903 ft | 426 kts | 235° |
| 2026-05-06 11:17 | 53.71659 | 7.54472 | 37905 ft | 426 kts | 235° |
| 2026-05-06 11:17 | 53.68386 | 7.46108 | 37914 ft | 427 kts | 235° |
| 2026-05-06 11:18 | 53.65099 | 7.37768 | 37920 ft | 427 kts | 235° |
| 2026-05-06 11:18 | 53.61809 | 7.29435 | 37912 ft | 427 kts | 235° |
| 2026-05-06 11:19 | 53.58517 | 7.21111 | 37926 ft | 427 kts | 235° |
| 2026-05-06 11:19 | 53.55212 | 7.12798 | 37922 ft | 427 kts | 235° |
| 2026-05-06 11:20 | 53.51928 | 7.04555 | 37910 ft | 427 kts | 235° |
| 2026-05-06 11:20 | 53.48612 | 6.96266 | 37910 ft | 428 kts | 235° |
| 2026-05-06 11:21 | 53.45288 | 6.87976 | 37908 ft | 428 kts | 235° |
| 2026-05-06 11:21 | 53.41959 | 6.79688 | 37911 ft | 428 kts | 235° |
| 2026-05-06 11:22 | 53.38623 | 6.71419 | 37912 ft | 428 kts | 235° |
| 2026-05-06 11:22 | 53.35281 | 6.63165 | 37920 ft | 428 kts | 235° |
| 2026-05-06 11:23 | 53.31932 | 6.54926 | 37927 ft | 428 kts | 235° |
| 2026-05-06 11:23 | 53.28577 | 6.46708 | 37927 ft | 428 kts | 234° |
| 2026-05-06 11:24 | 53.25223 | 6.38509 | 37918 ft | 428 kts | 234° |
| 2026-05-06 11:24 | 53.21862 | 6.30314 | 37923 ft | 427 kts | 234° |
| 2026-05-06 11:25 | 53.19064 | 6.23526 | 37932 ft | 427 kts | 234° |
| 2026-05-06 11:25 | 53.15694 | 6.15362 | 37927 ft | 427 kts | 234° |
| 2026-05-06 11:26 | 53.12325 | 6.07207 | 37947 ft | 427 kts | 235° |
| 2026-05-06 11:26 | 53.08946 | 5.99071 | 37915 ft | 427 kts | 234° |
| 2026-05-06 11:27 | 53.05555 | 5.90945 | 37916 ft | 428 kts | 234° |
| 2026-05-06 11:27 | 53.02158 | 5.82827 | 37929 ft | 428 kts | 234° |
| 2026-05-06 11:28 | 52.98760 | 5.74717 | 37925 ft | 428 kts | 234° |
| 2026-05-06 11:28 | 52.95353 | 5.66609 | 37925 ft | 428 kts | 234° |
| 2026-05-06 11:29 | 52.91936 | 5.58525 | 37916 ft | 428 kts | 234° |
| 2026-05-06 11:29 | 52.88513 | 5.50448 | 37927 ft | 428 kts | 234° |
| 2026-05-06 11:30 | 52.85091 | 5.42382 | 37916 ft | 429 kts | 234° |
| 2026-05-06 11:30 | 52.81656 | 5.34313 | 37921 ft | 429 kts | 234° |
| 2026-05-06 11:31 | 52.78212 | 5.26254 | 37924 ft | 429 kts | 234° |
| 2026-05-06 11:31 | 52.74761 | 5.18210 | 37928 ft | 429 kts | 234° |
| 2026-05-06 11:32 | 52.71303 | 5.10177 | 37923 ft | 429 kts | 234° |
| 2026-05-06 11:32 | 52.67839 | 5.02158 | 37923 ft | 429 kts | 234° |
| 2026-05-06 11:33 | 52.64370 | 4.94153 | 37909 ft | 429 kts | 234° |
| 2026-05-06 11:33 | 52.60891 | 4.86148 | 37922 ft | 430 kts | 234° |
| 2026-05-06 11:34 | 52.57411 | 4.78150 | 37907 ft | 430 kts | 234° |
| 2026-05-06 11:34 | 52.53924 | 4.70162 | 37906 ft | 430 kts | 234° |
| 2026-05-06 11:35 | 52.50422 | 4.62180 | 37912 ft | 431 kts | 234° |
| 2026-05-06 11:35 | 52.46917 | 4.54219 | 37913 ft | 431 kts | 234° |
| 2026-05-06 11:36 | 52.43408 | 4.46248 | 37908 ft | 431 kts | 233° |
| 2026-05-06 11:36 | 52.39891 | 4.38293 | 37906 ft | 431 kts | 233° |
| 2026-05-06 11:37 | 52.36365 | 4.30346 | 37916 ft | 431 kts | 233° |
| 2026-05-06 11:37 | 52.32840 | 4.22423 | 37914 ft | 431 kts | 233° |
| 2026-05-06 11:38 | 52.29300 | 4.14514 | 37922 ft | 431 kts | 233° |
| 2026-05-06 11:38 | 52.25754 | 4.06620 | 37923 ft | 431 kts | 233° |
| 2026-05-06 11:39 | 52.22210 | 3.98732 | 37921 ft | 431 kts | 233° |
| 2026-05-06 11:39 | 52.18659 | 3.90844 | 37934 ft | 431 kts | 233° |
| 2026-05-06 11:40 | 52.15108 | 3.82961 | 37930 ft | 431 kts | 233° |
| 2026-05-06 11:40 | 52.11548 | 3.75110 | 37928 ft | 431 kts | 233° |
| 2026-05-06 11:41 | 52.07977 | 3.67272 | 37942 ft | 431 kts | 233° |
| 2026-05-06 11:41 | 52.04425 | 3.59492 | 37944 ft | 431 kts | 233° |
| 2026-05-06 11:42 | 52.00839 | 3.51668 | 37946 ft | 431 kts | 233° |
| 2026-05-06 11:42 | 51.97255 | 3.43875 | 37939 ft | 431 kts | 233° |
| 2026-05-06 11:43 | 51.93667 | 3.36085 | 37937 ft | 432 kts | 233° |
| 2026-05-06 11:43 | 51.90072 | 3.28291 | 37955 ft | 432 kts | 233° |
| 2026-05-06 11:44 | 51.85337 | 3.15953 | 37944 ft | 433 kts | 250° |
| 2026-05-06 11:44 | 51.84232 | 3.06407 | 37942 ft | 434 kts | 263° |
| 2026-05-06 11:45 | 51.83607 | 2.96682 | 37944 ft | 435 kts | 262° |
| 2026-05-06 11:45 | 51.82961 | 2.86949 | 37950 ft | 435 kts | 262° |
| 2026-05-06 11:46 | 51.82633 | 2.82073 | 37740 ft | 435 kts | 262° |
| 2026-05-06 11:46 | 51.82311 | 2.77272 | 37470 ft | 435 kts | 262° |
| 2026-05-06 11:46 | 51.81979 | 2.72420 | 37202 ft | 435 kts | 262° |
| 2026-05-06 11:46 | 51.81644 | 2.67568 | 36940 ft | 434 kts | 262° |
| 2026-05-06 11:47 | 51.81311 | 2.62713 | 36681 ft | 433 kts | 263° |
| 2026-05-06 11:47 | 51.80981 | 2.57874 | 36417 ft | 434 kts | 262° |
| 2026-05-06 11:47 | 51.80647 | 2.53034 | 36156 ft | 434 kts | 262° |
| 2026-05-06 11:47 | 51.80310 | 2.48182 | 35913 ft | 434 kts | 262° |
| 2026-05-06 11:48 | 51.79972 | 2.43349 | 35664 ft | 433 kts | 262° |
| 2026-05-06 11:48 | 51.79632 | 2.38515 | 35128 ft | 435 kts | 262° |
| 2026-05-06 11:48 | 51.79286 | 2.33638 | 34354 ft | 439 kts | 262° |
| 2026-05-06 11:48 | 51.78932 | 2.28725 | 33484 ft | 443 kts | 262° |
| 2026-05-06 11:49 | 51.78569 | 2.23740 | 32554 ft | 446 kts | 262° |
| 2026-05-06 11:49 | 51.78217 | 2.18754 | 31682 ft | 449 kts | 263° |
| 2026-05-06 11:49 | 51.77907 | 2.13763 | 31189 ft | 443 kts | 263° |
| 2026-05-06 11:49 | 51.77630 | 2.08823 | 30611 ft | 439 kts | 264° |
| 2026-05-06 11:50 | 51.77367 | 2.03936 | 30041 ft | 435 kts | 264° |
| 2026-05-06 11:50 | 51.77102 | 1.99096 | 29409 ft | 431 kts | 264° |
| 2026-05-06 11:50 | 51.76827 | 1.94308 | 28847 ft | 425 kts | 263° |
| 2026-05-06 11:50 | 51.76546 | 1.89592 | 28291 ft | 420 kts | 263° |
| 2026-05-06 11:51 | 51.76263 | 1.84935 | 27735 ft | 414 kts | 263° |
| 2026-05-06 11:51 | 51.75977 | 1.80338 | 27184 ft | 410 kts | 263° |
| 2026-05-06 11:51 | 51.75692 | 1.75780 | 26646 ft | 405 kts | 263° |
| 2026-05-06 11:51 | 51.75410 | 1.71284 | 26127 ft | 401 kts | 263° |
| 2026-05-06 11:52 | 51.75127 | 1.66827 | 25603 ft | 397 kts | 263° |
| 2026-05-06 11:52 | 51.74844 | 1.62420 | 25097 ft | 393 kts | 263° |
| 2026-05-06 11:52 | 51.74564 | 1.58049 | 24544 ft | 391 kts | 263° |
| 2026-05-06 11:52 | 51.74287 | 1.53684 | 23955 ft | 391 kts | 263° |
| 2026-05-06 11:53 | 51.74011 | 1.49329 | 23330 ft | 390 kts | 263° |
| 2026-05-06 11:53 | 51.73732 | 1.44975 | 22716 ft | 388 kts | 263° |
| 2026-05-06 11:53 | 51.73453 | 1.40661 | 22148 ft | 386 kts | 263° |
| 2026-05-06 11:53 | 51.73174 | 1.36366 | 21551 ft | 383 kts | 263° |
| 2026-05-06 11:54 | 51.72896 | 1.32098 | 20988 ft | 382 kts | 263° |
| 2026-05-06 11:54 | 51.72619 | 1.27852 | 20421 ft | 380 kts | 263° |
| 2026-05-06 11:54 | 51.72342 | 1.23631 | 19850 ft | 378 kts | 263° |
| 2026-05-06 11:54 | 51.72063 | 1.19418 | 19284 ft | 376 kts | 264° |
| 2026-05-06 11:55 | 51.71784 | 1.15238 | 18726 ft | 374 kts | 264° |
| 2026-05-06 11:55 | 51.71507 | 1.11120 | 18163 ft | 373 kts | 264° |
| 2026-05-06 11:55 | 51.71222 | 1.06923 | 17568 ft | 370 kts | 264° |
| 2026-05-06 11:55 | 51.70941 | 1.02872 | 17008 ft | 367 kts | 264° |
| 2026-05-06 11:56 | 51.70657 | 0.98808 | 16462 ft | 363 kts | 264° |
| 2026-05-06 11:56 | 51.70377 | 0.94789 | 15925 ft | 359 kts | 264° |
| 2026-05-06 11:56 | 51.70101 | 0.90784 | 15210 ft | 360 kts | 264° |
| 2026-05-06 11:56 | 51.69825 | 0.86784 | 14705 ft | 355 kts | 264° |
| 2026-05-06 11:57 | 51.69556 | 0.82918 | 14180 ft | 352 kts | 264° |
| 2026-05-06 11:57 | 51.69279 | 0.78956 | 13338 ft | 346 kts | 264° |
| 2026-05-06 11:57 | 51.69005 | 0.75115 | 12244 ft | 343 kts | 264° |
| 2026-05-06 11:57 | 51.68732 | 0.71317 | 11223 ft | 339 kts | 264° |
| 2026-05-06 11:58 | 51.68462 | 0.67561 | 10343 ft | 334 kts | 266° |
| 2026-05-06 11:58 | 51.68203 | 0.63960 | 10080 ft | 311 kts | 265° |
| 2026-05-06 11:58 | 51.67960 | 0.60622 | 9844 ft | 292 kts | 265° |
| 2026-05-06 11:58 | 51.67726 | 0.57454 | 9688 ft | 282 kts | 265° |
| 2026-05-06 11:59 | 51.67496 | 0.54303 | 9551 ft | 283 kts | 265° |
| 2026-05-06 11:59 | 51.67270 | 0.51147 | 9217 ft | 286 kts | 266° |
| 2026-05-06 11:59 | 51.67044 | 0.47966 | 8800 ft | 286 kts | 266° |
| 2026-05-06 11:59 | 51.66811 | 0.44769 | 8450 ft | 285 kts | 265° |
| 2026-05-06 12:00 | 51.66576 | 0.41613 | 8116 ft | 281 kts | 266° |
| 2026-05-06 12:00 | 51.66342 | 0.38497 | 7476 ft | 280 kts | 265° |
| 2026-05-06 12:00 | 51.66107 | 0.35386 | 6837 ft | 279 kts | 265° |
| 2026-05-06 12:00 | 51.65874 | 0.32288 | 6254 ft | 278 kts | 265° |
| 2026-05-06 12:01 | 51.65643 | 0.29211 | 5630 ft | 276 kts | 267° |
| 2026-05-06 12:01 | 51.65412 | 0.26154 | 5025 ft | 274 kts | 266° |
| 2026-05-06 12:01 | 51.65184 | 0.23126 | 4517 ft | 269 kts | 266° |
| 2026-05-06 12:01 | 51.64960 | 0.20190 | 4388 ft | 260 kts | 266° |
| 2026-05-06 12:02 | 51.64747 | 0.17340 | 4256 ft | 251 kts | 267° |
| 2026-05-06 12:02 | 51.64543 | 0.14588 | 4123 ft | 246 kts | 266° |
| 2026-05-06 12:02 | 51.64376 | 0.11736 | 4009 ft | 261 kts | 266° |
| 2026-05-06 12:02 | 51.64227 | 0.08815 | 4003 ft | 263 kts | 268° |
| 2026-05-06 12:03 | 51.64078 | 0.05873 | 4007 ft | 264 kts | 268° |
| 2026-05-06 12:03 | 51.63925 | 0.02931 | 4008 ft | 265 kts | 270° |
| 2026-05-06 12:03 | 51.63772 | -0.00013 | 3986 ft | 264 kts | 268° |
| 2026-05-06 12:03 | 51.63665 | -0.01979 | 4016 ft | 265 kts | 268° |
| 2026-05-06 12:04 | 51.63512 | -0.04738 | 4023 ft | 264 kts | 268° |
| 2026-05-06 12:04 | 51.63349 | -0.07680 | 4028 ft | 264 kts | 268° |
| 2026-05-06 12:04 | 51.63185 | -0.10624 | 4028 ft | 264 kts | 267° |
| 2026-05-06 12:04 | 51.63018 | -0.13565 | 4032 ft | 263 kts | 267° |
| 2026-05-06 12:05 | 51.62850 | -0.16496 | 4033 ft | 264 kts | 267° |
| 2026-05-06 12:05 | 51.62672 | -0.19567 | 4034 ft | 263 kts | 268° |
| 2026-05-06 12:05 | 51.62512 | -0.22365 | 4039 ft | 263 kts | 268° |
| 2026-05-06 12:05 | 51.62346 | -0.25275 | 4033 ft | 264 kts | 268° |
| 2026-05-06 12:06 | 51.62175 | -0.28249 | 4036 ft | 264 kts | 267° |
| 2026-05-06 12:06 | 51.62003 | -0.31191 | 4034 ft | 265 kts | 268° |
| 2026-05-06 12:06 | 51.61829 | -0.34139 | 4008 ft | 264 kts | 267° |
| 2026-05-06 12:06 | 51.61653 | -0.37075 | 4008 ft | 265 kts | 268° |
| 2026-05-06 12:07 | 51.61476 | -0.40021 | 4008 ft | 265 kts | 267° |
| 2026-05-06 12:07 | 51.61301 | -0.42963 | 4008 ft | 264 kts | 267° |
| 2026-05-06 12:07 | 51.61126 | -0.45909 | 4007 ft | 265 kts | 268° |
| 2026-05-06 12:07 | 51.60951 | -0.48860 | 4006 ft | 265 kts | 267° |
| 2026-05-06 12:08 | 51.60775 | -0.51810 | 4008 ft | 265 kts | 268° |
| 2026-05-06 12:08 | 51.60595 | -0.54752 | 4010 ft | 264 kts | 268° |
| 2026-05-06 12:08 | 51.60415 | -0.57692 | 3994 ft | 263 kts | 266° |
| 2026-05-06 12:08 | 51.60238 | -0.60572 | 3694 ft | 262 kts | 268° |
| 2026-05-06 12:09 | 51.60059 | -0.63475 | 3358 ft | 261 kts | 267° |
| 2026-05-06 12:09 | 51.59881 | -0.66378 | 3062 ft | 259 kts | 267° |
| 2026-05-06 12:09 | 51.59705 | -0.69211 | 3001 ft | 248 kts | 267° |
| 2026-05-06 12:09 | 51.59537 | -0.71889 | 3002 ft | 232 kts | 268° |
| 2026-05-06 12:10 | 51.59379 | -0.74388 | 3002 ft | 217 kts | 268° |
| 2026-05-06 12:10 | 51.59232 | -0.76719 | 3002 ft | 204 kts | 268° |
| 2026-05-06 12:10 | 51.58925 | -0.78919 | 3004 ft | 205 kts | 243° |
| 2026-05-06 12:10 | 51.57822 | -0.80353 | 3013 ft | 211 kts | 194° |
| 2026-05-06 12:11 | 51.56373 | -0.80337 | 3013 ft | 211 kts | 170° |
| 2026-05-06 12:11 | 51.54937 | -0.79928 | 3012 ft | 208 kts | 168° |
| 2026-05-06 12:11 | 51.53516 | -0.79481 | 3012 ft | 209 kts | 168° |
| 2026-05-06 12:11 | 51.52089 | -0.79029 | 3002 ft | 209 kts | 167° |
| 2026-05-06 12:12 | 51.50655 | -0.78560 | 3011 ft | 210 kts | 163° |
| 2026-05-06 12:12 | 51.49340 | -0.77579 | 3006 ft | 207 kts | 141° |
| 2026-05-06 12:12 | 51.48336 | -0.75955 | 3005 ft | 203 kts | 120° |
| 2026-05-06 12:12 | 51.47756 | -0.73955 | 3022 ft | 190 kts | 99° |
| 2026-05-06 12:13 | 51.47624 | -0.71981 | 2948 ft | 171 kts | 85° |
| 2026-05-06 12:13 | 51.47636 | -0.70128 | 2777 ft | 166 kts | 84° |
| 2026-05-06 12:13 | 51.47649 | -0.68286 | 2573 ft | 164 kts | 86° |
| 2026-05-06 12:13 | 51.47660 | -0.66467 | 2357 ft | 162 kts | 84° |
| 2026-05-06 12:14 | 51.47670 | -0.64671 | 2134 ft | 160 kts | 85° |
| 2026-05-06 12:14 | 51.47678 | -0.62929 | 1945 ft | 148 kts | 84° |
| 2026-05-06 12:14 | 51.47687 | -0.61311 | 1725 ft | 141 kts | 83° |
| 2026-05-06 12:14 | 51.47696 | -0.59737 | 1517 ft | 141 kts | 85° |
| 2026-05-06 12:15 | 51.47704 | -0.58169 | 1332 ft | 139 kts | 85° |
| 2026-05-06 12:15 | 51.47712 | -0.56616 | 1134 ft | 141 kts | 85° |
| 2026-05-06 12:15 | 51.47719 | -0.55043 | 954 ft | 140 kts | 84° |
| 2026-05-06 12:15 | 51.47726 | -0.53506 | 752 ft | 136 kts | 84° |
| 2026-05-06 12:16 | 51.47733 | -0.51994 | 568 ft | 135 kts | 84° |
| 2026-05-06 12:16 | 51.47739 | -0.50498 | 340 ft | 133 kts | 84° |
| 2026-05-06 12:16 | 51.47745 | -0.49024 | 175 ft | 131 kts | 85° |
| 2026-05-06 12:16 | 51.47753 | -0.47610 | 86 ft | 113 kts | 87° |
| 2026-05-06 12:17 | 51.47758 | -0.46758 | 90 ft | 51 kts | 89° |
| 2026-05-06 12:17 | 51.47757 | -0.46300 | 89 ft | 25 kts | 90° |
| 2026-05-06 12:17 | 51.47707 | -0.46148 | 89 ft | 16 kts | 145° |
| 2026-05-06 12:17 | 51.47643 | -0.46076 | 87 ft | 2 kts | 144° |
| 2026-05-06 12:18 | 51.47627 | -0.46061 | 88 ft | 0 kts | 155° |
| 2026-05-06 12:18 | 51.47619 | -0.46061 | 87 ft | 3 kts | 184° |
| 2026-05-06 12:18 | 51.47595 | -0.46118 | 90 ft | 8 kts | 255° |
| 2026-05-06 12:18 | 51.47594 | -0.46218 | 86 ft | 10 kts | 270° |
| 2026-05-06 12:19 | 51.47594 | -0.46345 | 86 ft | 13 kts | 270° |
| 2026-05-06 12:19 | 51.47593 | -0.46500 | 86 ft | 15 kts | 270° |
| 2026-05-06 12:19 | 51.47592 | -0.46682 | 86 ft | 18 kts | 270° |
| 2026-05-06 12:19 | 51.47584 | -0.46892 | 86 ft | 20 kts | 264° |
| 2026-05-06 12:20 | 51.47582 | -0.47132 | 86 ft | 23 kts | 269° |
| 2026-05-06 12:20 | 51.47582 | -0.47404 | 88 ft | 26 kts | 270° |
| 2026-05-06 12:20 | 51.47580 | -0.47695 | 88 ft | 22 kts | 270° |
| 2026-05-06 12:20 | 51.47580 | -0.47953 | 90 ft | 24 kts | 269° |
| 2026-05-06 12:21 | 51.47579 | -0.48181 | 90 ft | 15 kts | 270° |
| 2026-05-06 12:21 | 51.47578 | -0.48320 | 88 ft | 7 kts | 269° |
| 2026-05-06 12:21 | 51.47578 | -0.48336 | 89 ft | 3 kts | 269° |
| 2026-05-06 12:21 | 51.47578 | -0.48400 | 88 ft | 9 kts | 269° |
| 2026-05-06 12:22 | 51.47538 | -0.48474 | 90 ft | 11 kts | 190° |
| 2026-05-06 12:22 | 51.47455 | -0.48476 | 86 ft | 13 kts | 180° |
| 2026-05-06 12:22 | 51.47355 | -0.48476 | 86 ft | 15 kts | 180° |
| 2026-05-06 12:22 | 51.47275 | -0.48495 | 90 ft | 8 kts | 249° |
| 2026-05-06 12:23 | 51.47271 | -0.48588 | 89 ft | 6 kts | 270° |
| 2026-05-06 12:23 | 51.47271 | -0.48590 | 89 ft | 0 kts | 270° |
| 2026-05-06 12:25 | 51.47087 | -0.48582 | 86 ft | 0 kts | 269° |